createdAt,value
2019-03-27T00:02:27.743Z,13.22
2019-03-27T00:04:58.068Z,14.00
2019-03-27T00:07:28.291Z,13.53
2019-03-27T00:09:58.609Z,13.50
2019-03-27T00:12:28.753Z,12.90
2019-03-27T00:15:12.188Z,12.50
2019-03-27T00:17:30.951Z,12.78
2019-03-27T00:20:01.241Z,12.33
2019-03-27T00:22:31.467Z,12.78
2019-03-27T00:25:01.597Z,12.35
2019-03-27T00:27:31.839Z,12.20
2019-03-27T00:30:02.044Z,12.23
2019-03-27T00:32:32.263Z,12.78
2019-03-27T00:35:02.576Z,12.20
2019-03-27T00:37:32.755Z,11.25
2019-03-27T00:40:02.952Z,11.20
2019-03-27T00:42:33.170Z,10.98
2019-03-27T00:45:03.476Z,11.50
2019-03-27T00:47:33.794Z,11.55
2019-03-27T00:50:04.030Z,11.65
2019-03-27T00:52:34.272Z,11.03
2019-03-27T00:55:04.635Z,10.72
2019-03-27T00:57:34.709Z,10.38
2019-03-27T01:00:05.647Z,11.73
2019-03-27T01:02:35.874Z,11.10
2019-03-27T01:05:06.468Z,11.00
2019-03-27T01:07:36.702Z,10.65
2019-03-27T01:10:06.873Z,10.75
2019-03-27T01:12:37.117Z,10.32
2019-03-27T01:15:07.397Z,10.65
2019-03-27T01:17:37.606Z,10.53
2019-03-27T01:20:07.766Z,10.08
2019-03-27T01:22:38.062Z,9.35
2019-03-27T01:25:08.294Z,10.00
2019-03-27T01:27:38.558Z,9.58
2019-03-27T01:30:08.744Z,9.70
2019-03-27T01:32:39.031Z,9.03
2019-03-27T01:35:09.304Z,9.10
2019-03-27T01:37:39.508Z,9.08
2019-03-27T01:40:10.025Z,9.60
2019-03-27T01:42:40.331Z,9.08
2019-03-27T01:45:10.473Z,9.18
2019-03-27T01:47:40.799Z,9.15
2019-03-27T01:50:11.111Z,8.90
2019-03-27T01:52:41.257Z,8.43
2019-03-27T01:55:12.867Z,8.43
2019-03-27T01:57:43.026Z,8.38
2019-03-27T02:00:13.328Z,8.10
2019-03-27T02:02:43.556Z,8.28
2019-03-27T02:05:12.276Z,8.35
2019-03-27T02:07:42.499Z,8.53
2019-03-27T02:10:12.712Z,8.30
2019-03-27T02:12:41.507Z,8.08
2019-03-27T02:15:11.802Z,8.05
2019-03-27T02:17:41.961Z,8.30
2019-03-27T02:20:12.187Z,7.97
2019-03-27T02:22:42.426Z,8.55
2019-03-27T02:25:12.694Z,8.08
2019-03-27T02:27:43.018Z,7.72
2019-03-27T02:30:13.343Z,7.97
2019-03-27T02:32:43.599Z,7.72
2019-03-27T02:35:13.832Z,7.80
2019-03-27T02:37:44.145Z,7.72
2019-03-27T02:40:17.165Z,7.37
2019-03-27T02:42:47.433Z,7.30
2019-03-27T02:45:17.672Z,6.47
2019-03-27T02:47:48.853Z,7.12
2019-03-27T02:50:19.119Z,7.10
2019-03-27T02:52:49.264Z,7.15
2019-03-27T02:55:20.493Z,7.08
2019-03-27T02:57:50.716Z,6.87
2019-03-27T03:00:20.966Z,6.40
2019-03-27T03:02:51.216Z,6.62
2019-03-27T03:05:21.414Z,7.20
2019-03-27T03:07:51.709Z,6.80
2019-03-27T03:10:22.039Z,6.62
2019-03-27T03:12:52.126Z,6.90
2019-03-27T03:15:22.831Z,6.97
2019-03-27T03:17:53.083Z,6.10
2019-03-27T03:20:23.258Z,6.40
2019-03-27T03:22:53.528Z,6.25
2019-03-27T03:25:23.776Z,6.30
2019-03-27T03:27:54.108Z,6.42
2019-03-27T03:30:24.277Z,6.35
2019-03-27T03:32:54.490Z,6.72
2019-03-27T03:35:24.824Z,6.28
2019-03-27T03:37:55.107Z,5.83
2019-03-27T03:40:23.824Z,6.75
2019-03-27T03:42:54.106Z,6.08
2019-03-27T03:45:24.248Z,5.80
2019-03-27T03:47:54.488Z,6.03
2019-03-27T03:50:37.485Z,5.67
2019-03-27T03:53:09.115Z,5.92
2019-03-27T03:55:39.516Z,5.42
2019-03-27T03:58:11.670Z,5.22
2019-03-27T04:00:42.054Z,5.55
2019-03-27T04:03:12.381Z,5.00
2019-03-27T04:05:42.631Z,5.62
2019-03-27T04:08:12.978Z,5.25
2019-03-27T04:10:43.261Z,5.62
2019-03-27T04:13:13.593Z,5.20
2019-03-27T04:15:43.878Z,5.17
2019-03-27T04:18:14.054Z,5.60
2019-03-27T04:20:44.287Z,5.53
2019-03-27T04:23:14.599Z,5.33
2019-03-27T04:26:08.437Z,5.72
2019-03-27T04:28:16.959Z,5.60
2019-03-27T04:30:47.244Z,5.53
2019-03-27T04:33:17.539Z,4.97
2019-03-27T04:35:47.780Z,4.92
2019-03-27T04:38:17.993Z,5.05
2019-03-27T04:40:48.273Z,4.95
2019-03-27T04:43:18.505Z,4.78
2019-03-27T04:45:48.975Z,4.62
2019-03-27T04:48:19.206Z,4.83
2019-03-27T04:50:49.398Z,4.50
2019-03-27T04:53:19.635Z,4.60
2019-03-27T04:55:49.923Z,5.00
2019-03-27T04:58:20.279Z,4.55
2019-03-27T05:00:51.602Z,4.58
2019-03-27T05:03:21.891Z,4.55
2019-03-27T05:05:52.188Z,4.78
2019-03-27T05:08:22.483Z,5.20
2019-03-27T05:10:52.723Z,5.00
2019-03-27T05:13:22.951Z,4.72
2019-03-27T05:15:53.170Z,4.72
2019-03-27T05:18:23.402Z,4.90
2019-03-27T05:20:53.689Z,4.28
2019-03-27T05:23:23.920Z,4.40
2019-03-27T05:25:54.164Z,4.55
2019-03-27T05:28:24.396Z,4.40
2019-03-27T05:30:54.710Z,4.45
2019-03-27T05:33:25.024Z,4.00
2019-03-27T05:35:55.335Z,4.40
2019-03-27T05:38:25.489Z,4.45
2019-03-27T05:40:55.712Z,4.67
2019-03-27T05:43:25.980Z,4.85
2019-03-27T05:45:56.671Z,4.55
2019-03-27T05:48:26.900Z,4.70
2019-03-27T05:50:57.303Z,4.53
2019-03-27T05:53:27.609Z,4.55
2019-03-27T05:55:57.573Z,4.70
2019-03-27T05:58:27.904Z,5.00
2019-03-27T06:00:58.242Z,4.67
2019-03-27T06:03:28.434Z,5.03
2019-03-27T06:05:58.738Z,4.72
2019-03-27T06:08:29.151Z,4.37
2019-03-27T06:10:59.323Z,4.37
2019-03-27T06:13:29.529Z,4.20
2019-03-27T06:15:59.764Z,3.85
2019-03-27T06:18:30.047Z,4.35
2019-03-27T06:21:00.383Z,4.17
2019-03-27T06:23:30.630Z,4.37
2019-03-27T06:26:00.850Z,4.25
2019-03-27T06:28:31.065Z,4.78
2019-03-27T06:31:01.269Z,8.30
2019-03-27T06:33:31.594Z,6.00
2019-03-27T06:36:01.790Z,9.73
2019-03-27T06:38:31.961Z,10.70
2019-03-27T06:41:01.950Z,11.03
2019-03-27T06:43:32.075Z,11.85
2019-03-27T06:46:02.343Z,11.30
2019-03-27T06:48:32.544Z,11.45
2019-03-27T06:51:02.762Z,10.70
2019-03-27T06:53:33.080Z,10.13
2019-03-27T06:56:03.400Z,12.15
2019-03-27T06:58:33.557Z,11.63
2019-03-27T07:01:03.748Z,10.38
2019-03-27T07:03:34.094Z,10.65
2019-03-27T07:06:04.492Z,11.22
2019-03-27T07:08:34.838Z,10.98
2019-03-27T07:11:05.242Z,11.45
2019-03-27T07:13:35.649Z,11.33
2019-03-27T07:16:05.914Z,11.03
2019-03-27T07:18:40.468Z,10.50
2019-03-27T07:21:08.212Z,9.78
2019-03-27T07:23:38.507Z,11.00
2019-03-27T07:26:08.726Z,10.55
2019-03-27T07:28:38.963Z,12.03
2019-03-27T07:31:09.276Z,11.78
2019-03-27T07:33:39.545Z,11.83
2019-03-27T07:36:09.846Z,11.18
2019-03-27T07:38:40.088Z,11.38
2019-03-27T07:41:10.374Z,11.53
2019-03-27T07:43:40.914Z,12.65
2019-03-27T07:46:11.330Z,11.35
2019-03-27T07:48:53.334Z,12.03
2019-03-27T07:51:13.722Z,12.68
2019-03-27T07:53:43.972Z,12.40
2019-03-27T07:56:14.215Z,12.15
2019-03-27T07:58:44.434Z,11.97
2019-03-27T08:01:14.737Z,12.05
2019-03-27T08:03:45.036Z,11.33
2019-03-27T08:06:15.376Z,12.33
2019-03-27T08:08:45.629Z,12.13
2019-03-27T08:11:15.870Z,12.07
2019-03-27T08:13:46.164Z,12.90
2019-03-27T08:16:16.495Z,12.80
2019-03-27T08:18:46.784Z,13.50
2019-03-27T08:21:17.019Z,12.45
2019-03-27T08:23:47.261Z,12.20
2019-03-27T08:26:17.497Z,12.03
2019-03-27T08:28:47.782Z,12.93
2019-03-27T08:31:18.152Z,12.47
2019-03-27T08:33:48.453Z,11.40
2019-03-27T08:36:18.677Z,11.50
2019-03-27T08:38:48.948Z,11.38
2019-03-27T08:41:19.128Z,9.83
2019-03-27T08:43:49.435Z,11.20
2019-03-27T08:46:19.750Z,13.70
2019-03-27T08:48:49.897Z,12.23
2019-03-27T08:51:20.107Z,13.22
2019-03-27T08:53:50.343Z,11.12
2019-03-27T08:56:20.668Z,11.73
2019-03-27T08:58:50.973Z,9.70
2019-03-27T09:01:21.292Z,10.38
2019-03-27T09:03:51.537Z,10.20
2019-03-27T09:06:33.095Z,9.23
2019-03-27T09:08:53.732Z,9.10
2019-03-27T09:11:23.946Z,8.35
2019-03-27T09:13:54.264Z,7.70
2019-03-27T09:16:24.573Z,8.00
2019-03-27T09:18:54.744Z,7.83
2019-03-27T09:21:24.943Z,7.20
2019-03-27T09:23:55.170Z,7.00
2019-03-27T09:26:25.468Z,6.05
2019-03-27T09:28:55.797Z,5.92
2019-03-27T09:31:26.057Z,5.58
2019-03-27T09:33:56.302Z,5.00
2019-03-27T09:36:26.486Z,4.90
2019-03-27T09:38:56.788Z,4.70
2019-03-27T09:41:27.120Z,4.58
2019-03-27T09:43:57.359Z,4.55
2019-03-27T09:46:27.692Z,4.45
2019-03-27T09:48:57.890Z,3.65
2019-03-27T09:51:28.212Z,3.83
2019-03-27T09:53:58.422Z,3.95
2019-03-27T09:56:28.585Z,3.50
2019-03-27T09:58:58.807Z,3.40
2019-03-27T10:01:29.037Z,3.45
2019-03-27T10:03:59.254Z,3.58
2019-03-27T10:06:29.550Z,3.15
2019-03-27T10:08:59.868Z,3.33
2019-03-27T10:11:30.070Z,2.92
2019-03-27T10:14:00.346Z,2.98
2019-03-27T10:16:30.671Z,3.30
2019-03-27T10:19:00.976Z,2.90
2019-03-27T10:21:31.289Z,3.10
2019-03-27T10:24:01.728Z,3.00
2019-03-27T10:26:32.019Z,2.52
2019-03-27T10:29:02.200Z,2.90
2019-03-27T10:31:32.426Z,3.40
2019-03-27T10:34:02.724Z,3.25
2019-03-27T10:36:32.726Z,3.12
2019-03-27T10:39:02.982Z,3.65
2019-03-27T10:41:33.207Z,3.40
2019-03-27T10:44:03.440Z,3.27
2019-03-27T10:46:33.726Z,3.55
2019-03-27T10:49:03.874Z,4.90
2019-03-27T10:51:34.300Z,4.33
2019-03-27T10:54:04.678Z,4.45
2019-03-27T10:56:34.778Z,5.12
2019-03-27T10:59:05.045Z,5.72
2019-03-27T11:01:35.276Z,6.67
2019-03-27T11:04:05.598Z,7.80
2019-03-27T11:06:35.754Z,10.38
2019-03-27T11:09:08.675Z,9.68
2019-03-27T11:11:39.039Z,11.03
2019-03-27T11:14:09.352Z,9.00
2019-03-27T11:16:39.519Z,7.53
2019-03-27T11:19:09.833Z,7.05
2019-03-27T11:21:39.994Z,6.50
2019-03-27T11:24:10.242Z,6.83
2019-03-27T11:26:40.575Z,5.70
2019-03-27T11:29:10.829Z,5.67
2019-03-27T11:31:41.052Z,4.78
2019-03-27T11:34:11.261Z,4.47
2019-03-27T11:36:41.571Z,3.80
2019-03-27T11:39:11.828Z,4.05
2019-03-27T11:41:42.121Z,3.70
2019-03-27T11:44:12.846Z,3.70
2019-03-27T11:46:43.011Z,3.87
2019-03-27T11:49:13.220Z,3.52
2019-03-27T11:51:43.493Z,3.77
2019-03-27T11:54:13.768Z,3.85
2019-03-27T11:56:44.123Z,3.58
2019-03-27T11:59:14.481Z,5.60
2019-03-27T12:01:44.635Z,6.37
2019-03-27T12:04:14.877Z,6.78
2019-03-27T12:06:45.077Z,6.40
2019-03-27T12:09:15.429Z,6.53
2019-03-27T12:11:45.702Z,6.20
2019-03-27T12:14:16.037Z,5.95
2019-03-27T12:16:46.190Z,6.05
2019-03-27T12:19:16.441Z,6.05
2019-03-27T12:21:46.692Z,6.83
2019-03-27T12:24:16.937Z,6.58
2019-03-27T12:26:47.380Z,5.72
2019-03-27T12:29:18.300Z,5.28
2019-03-27T12:31:48.637Z,5.15
2019-03-27T12:34:18.946Z,4.87
2019-03-27T12:36:49.267Z,6.03
2019-03-27T12:39:19.420Z,5.78
2019-03-27T12:41:49.570Z,6.08
2019-03-27T12:44:19.696Z,5.90
2019-03-27T12:46:51.810Z,6.03
2019-03-27T12:49:22.119Z,6.35
2019-03-27T12:51:52.284Z,6.30
2019-03-27T12:54:22.607Z,6.97
2019-03-27T12:56:52.826Z,7.08
2019-03-27T12:59:23.118Z,6.53
2019-03-27T13:01:53.453Z,6.65
2019-03-27T13:04:23.767Z,6.97
2019-03-27T13:06:53.921Z,7.60
2019-03-27T13:09:24.153Z,6.80
2019-03-27T13:11:54.365Z,8.30
2019-03-27T13:14:24.661Z,8.60
2019-03-27T13:16:54.890Z,9.15
2019-03-27T13:19:25.169Z,11.03
2019-03-27T13:21:55.541Z,20.80
2019-03-27T13:24:25.924Z,17.32
2019-03-27T13:26:56.122Z,15.88
2019-03-27T13:29:26.412Z,16.30
2019-03-27T13:31:56.733Z,18.12
2019-03-27T13:34:26.889Z,18.05
2019-03-27T13:36:57.201Z,19.50
2019-03-27T13:39:27.444Z,19.05
2019-03-27T13:41:57.655Z,18.50
2019-03-27T13:44:36.813Z,18.73
2019-03-27T13:47:00.160Z,19.25
2019-03-27T13:49:30.561Z,20.08
2019-03-27T13:52:00.807Z,20.12
2019-03-27T13:54:31.044Z,20.65
2019-03-27T13:57:01.248Z,20.80
2019-03-27T13:59:31.552Z,21.45
2019-03-27T14:02:01.888Z,25.82
2019-03-27T14:04:32.246Z,22.70
2019-03-27T14:07:02.445Z,22.58
2019-03-27T14:09:32.689Z,19.10
2019-03-27T14:12:02.888Z,25.50
2019-03-27T14:14:33.296Z,27.30
2019-03-27T14:17:03.617Z,27.17
2019-03-27T14:19:33.946Z,26.57
2019-03-27T14:22:04.189Z,25.85
2019-03-27T14:24:34.559Z,29.12
2019-03-27T14:27:04.854Z,28.45
2019-03-27T14:29:35.062Z,27.48
2019-03-27T14:32:05.443Z,29.57
2019-03-27T14:34:35.691Z,28.85
2019-03-27T14:37:05.963Z,29.05
2019-03-27T14:39:36.160Z,26.90
2019-03-27T14:42:06.384Z,27.00
2019-03-27T14:44:36.684Z,28.17
2019-03-27T14:47:07.012Z,29.57
2019-03-27T14:49:37.784Z,33.28
2019-03-27T14:52:08.749Z,32.73
2019-03-27T14:54:39.030Z,32.80
2019-03-27T14:57:09.443Z,34.18
2019-03-27T14:59:39.761Z,35.28
2019-03-27T15:02:09.987Z,34.78
2019-03-27T15:04:40.235Z,36.17
2019-03-27T15:07:10.463Z,35.52
2019-03-27T15:09:40.650Z,34.98
2019-03-27T15:12:10.883Z,36.17
2019-03-27T15:14:41.133Z,38.73
2019-03-27T15:17:11.341Z,38.90
2019-03-27T15:19:41.570Z,40.10
2019-03-27T15:22:21.859Z,42.90
2019-03-27T15:24:43.766Z,42.43
2019-03-27T15:27:14.102Z,43.25
2019-03-27T15:29:44.524Z,43.90
2019-03-27T15:32:14.738Z,42.00
2019-03-27T15:34:44.960Z,45.83
2019-03-27T15:37:15.257Z,44.60
2019-03-27T15:39:45.495Z,45.43
2019-03-27T15:42:15.729Z,51.33
2019-03-27T15:44:45.953Z,49.83
2019-03-27T15:47:17.880Z,53.42
2019-03-27T15:49:48.323Z,48.55
2019-03-27T15:52:18.741Z,53.83
2019-03-27T15:54:49.077Z,50.40
2019-03-27T15:57:19.404Z,52.73
2019-03-27T15:59:49.763Z,50.35
2019-03-27T16:02:19.974Z,52.08
2019-03-27T16:04:50.197Z,52.83
2019-03-27T16:07:20.665Z,46.23
2019-03-27T16:09:51.027Z,45.63
2019-03-27T16:12:21.354Z,47.08
2019-03-27T16:14:51.668Z,46.45
2019-03-27T16:17:21.819Z,43.83
2019-03-27T16:19:52.043Z,42.78
2019-03-27T16:22:22.276Z,40.75
2019-03-27T16:24:52.692Z,40.50
2019-03-27T16:27:24.062Z,38.92
2019-03-27T16:29:54.267Z,37.58
2019-03-27T16:32:24.491Z,38.55
2019-03-27T16:34:54.780Z,36.55
2019-03-27T16:37:25.121Z,35.43
2019-03-27T16:39:55.356Z,35.63
2019-03-27T16:42:25.602Z,33.88
2019-03-27T16:44:55.876Z,33.30
2019-03-27T16:47:26.174Z,31.33
2019-03-27T16:49:56.347Z,32.25
2019-03-27T16:52:26.568Z,30.17
2019-03-27T16:54:56.803Z,29.98
2019-03-27T16:57:27.097Z,30.05
2019-03-27T16:59:57.737Z,28.70
2019-03-27T17:02:28.059Z,27.58
2019-03-27T17:04:58.307Z,28.10
2019-03-27T17:07:28.622Z,28.07
2019-03-27T17:09:58.944Z,25.68
2019-03-27T17:12:31.451Z,25.95
2019-03-27T17:15:01.219Z,26.52
2019-03-27T17:17:31.465Z,26.62
2019-03-27T17:20:01.461Z,24.90
2019-03-27T17:22:31.681Z,25.17
2019-03-27T17:25:01.919Z,24.50
2019-03-27T17:27:32.150Z,25.60
2019-03-27T17:30:02.610Z,26.12
2019-03-27T17:32:32.797Z,24.47
2019-03-27T17:35:03.208Z,24.35
2019-03-27T17:37:33.527Z,23.52
2019-03-27T17:40:03.992Z,23.15
2019-03-27T17:42:34.211Z,22.32
2019-03-27T17:45:04.429Z,22.30
2019-03-27T17:47:34.675Z,22.27
2019-03-27T17:50:05.065Z,21.57
2019-03-27T17:52:38.229Z,22.30
2019-03-27T17:55:07.457Z,21.30
2019-03-27T17:57:37.776Z,21.12
2019-03-27T18:00:09.780Z,20.15
2019-03-27T18:02:40.045Z,20.23
2019-03-27T18:05:10.220Z,19.87
2019-03-27T18:07:40.415Z,20.68
2019-03-27T18:10:10.836Z,20.25
2019-03-27T18:12:41.181Z,20.20
2019-03-27T18:15:11.422Z,18.75
2019-03-27T18:17:41.638Z,18.05
2019-03-27T18:20:11.857Z,19.45
2019-03-27T18:22:42.150Z,18.27
2019-03-27T18:25:12.486Z,18.00
2019-03-27T18:27:42.801Z,18.25
2019-03-27T18:30:13.056Z,18.52
2019-03-27T18:32:43.274Z,17.42
2019-03-27T18:35:13.515Z,17.95
2019-03-27T18:37:43.903Z,16.85
2019-03-27T18:40:14.235Z,17.62
2019-03-27T18:42:44.548Z,18.23
2019-03-27T18:45:14.752Z,17.07
2019-03-27T18:47:44.903Z,16.20
2019-03-27T18:50:15.149Z,16.73
2019-03-27T18:52:45.449Z,16.23
2019-03-27T18:55:25.702Z,16.55
2019-03-27T18:57:59.348Z,16.52
2019-03-27T19:00:20.363Z,16.87
2019-03-27T19:02:50.741Z,15.72
2019-03-27T19:05:21.136Z,16.05
2019-03-27T19:07:51.522Z,16.00
2019-03-27T19:10:21.767Z,15.95
2019-03-27T19:12:51.969Z,15.10
2019-03-27T19:15:22.187Z,15.98
2019-03-27T19:17:52.449Z,15.35
2019-03-27T19:20:22.708Z,15.80
2019-03-27T19:22:52.984Z,16.32
2019-03-27T19:25:23.208Z,14.73
2019-03-27T19:27:53.404Z,14.58
2019-03-27T19:30:23.706Z,14.80
2019-03-27T19:32:54.079Z,14.38
2019-03-27T19:35:24.372Z,14.78
2019-03-27T19:37:54.591Z,12.85
2019-03-27T19:40:24.933Z,13.05
2019-03-27T19:42:55.172Z,13.53
2019-03-27T19:45:25.375Z,12.55
2019-03-27T19:47:55.664Z,11.60
2019-03-27T19:50:25.912Z,10.75
2019-03-27T19:52:56.140Z,11.20
2019-03-27T19:55:26.372Z,9.95
2019-03-27T19:57:56.892Z,9.78
2019-03-27T20:00:27.123Z,9.78
2019-03-27T20:02:57.418Z,10.63
2019-03-27T20:05:27.748Z,10.88
2019-03-27T20:07:58.004Z,10.58
2019-03-27T20:10:28.323Z,10.95
2019-03-27T20:12:58.637Z,11.03
2019-03-27T20:15:28.666Z,10.32
2019-03-27T20:17:58.619Z,10.20
2019-03-27T20:20:28.917Z,10.08
2019-03-27T20:22:59.229Z,9.70
2019-03-27T20:25:29.519Z,10.58
2019-03-27T20:27:59.859Z,10.23
2019-03-27T20:30:30.097Z,11.55
2019-03-27T20:33:00.329Z,12.47
2019-03-27T20:35:30.641Z,10.13
2019-03-27T20:38:00.878Z,10.20
2019-03-27T20:40:31.161Z,9.85
2019-03-27T20:43:01.412Z,10.35
2019-03-27T20:45:31.743Z,9.63
2019-03-27T20:48:01.977Z,9.98
2019-03-27T20:50:32.182Z,9.95
2019-03-27T20:53:02.534Z,9.93
2019-03-27T20:55:32.814Z,9.90
2019-03-27T20:58:03.060Z,9.65
2019-03-27T21:00:33.460Z,10.05
2019-03-27T21:03:04.209Z,9.33
2019-03-27T21:05:35.304Z,9.35
2019-03-27T21:08:05.662Z,9.50
2019-03-27T21:10:35.765Z,9.48
2019-03-27T21:13:05.957Z,9.03
2019-03-27T21:15:38.658Z,9.05
2019-03-27T21:18:08.227Z,8.80
2019-03-27T21:20:38.458Z,8.68
2019-03-27T21:23:08.744Z,8.75
2019-03-27T21:25:39.000Z,9.10
2019-03-27T21:28:09.325Z,8.68
2019-03-27T21:30:39.555Z,9.20
2019-03-27T21:33:09.775Z,9.23
2019-03-27T21:35:40.072Z,8.65
2019-03-27T21:38:10.385Z,9.10
2019-03-27T21:40:40.570Z,9.48
2019-03-27T21:43:10.798Z,8.03
2019-03-27T21:45:40.982Z,8.18
2019-03-27T21:48:11.287Z,8.80
2019-03-27T21:50:41.601Z,8.88
2019-03-27T21:53:11.764Z,7.75
2019-03-27T21:55:43.168Z,8.25
2019-03-27T21:58:13.538Z,8.10
2019-03-27T22:00:43.827Z,8.05
2019-03-27T22:03:14.164Z,7.80
2019-03-27T22:05:44.416Z,7.90
2019-03-27T22:08:14.643Z,7.80
2019-03-27T22:10:44.867Z,7.15
2019-03-27T22:13:15.181Z,8.08
2019-03-27T22:15:45.475Z,7.65
2019-03-27T22:18:15.708Z,8.45
2019-03-27T22:20:46.000Z,7.75
2019-03-27T22:23:16.180Z,7.08
2019-03-27T22:25:46.291Z,7.60
2019-03-27T22:28:16.596Z,7.50
2019-03-27T22:30:47.018Z,7.45
2019-03-27T22:33:17.387Z,7.05
2019-03-27T22:35:47.586Z,7.12
2019-03-27T22:38:17.822Z,6.60
2019-03-27T22:40:48.044Z,7.10
2019-03-27T22:43:18.331Z,7.05
2019-03-27T22:45:48.567Z,7.65
2019-03-27T22:48:18.799Z,6.83
2019-03-27T22:50:49.032Z,6.53
2019-03-27T22:53:19.260Z,7.10
2019-03-27T22:55:50.638Z,6.90
2019-03-27T22:58:20.813Z,7.50
2019-03-27T23:00:52.148Z,6.67
2019-03-27T23:03:22.368Z,6.87
2019-03-27T23:05:52.589Z,6.83
2019-03-27T23:08:22.737Z,6.87
2019-03-27T23:10:52.959Z,6.72
2019-03-27T23:13:23.264Z,7.35
2019-03-27T23:15:53.496Z,6.97
2019-03-27T23:18:23.735Z,6.42
2019-03-27T23:20:53.954Z,7.30
2019-03-27T23:23:24.176Z,7.00
2019-03-27T23:26:03.003Z,6.72
2019-03-27T23:28:26.449Z,5.90
2019-03-27T23:30:56.728Z,6.10
2019-03-27T23:33:26.914Z,6.53
2019-03-27T23:35:57.137Z,6.55
2019-03-27T23:38:27.368Z,6.33
2019-03-27T23:40:57.663Z,6.50
2019-03-27T23:43:27.887Z,6.35
2019-03-27T23:45:58.016Z,6.55
2019-03-27T23:48:28.256Z,6.33
2019-03-27T23:50:58.473Z,6.45
2019-03-27T23:53:28.777Z,5.90
2019-03-27T23:55:59.101Z,6.10
2019-03-27T23:58:29.249Z,6.40
